createdAt,value
2022-11-22T00:00:51.739Z,4.00
2022-11-22T00:03:19.800Z,3.90
2022-11-22T00:05:48.954Z,4.00
2022-11-22T00:08:16.769Z,4.00
2022-11-22T00:10:44.656Z,4.10
2022-11-22T00:13:12.539Z,4.10
2022-11-22T00:15:40.382Z,4.00
2022-11-22T00:18:08.182Z,3.90
2022-11-22T00:20:36.199Z,4.10
2022-11-22T00:23:05.478Z,4.20
2022-11-22T00:25:33.318Z,3.90
2022-11-22T00:28:01.120Z,3.90
2022-11-22T00:30:28.936Z,4.00
2022-11-22T00:32:56.747Z,4.00
2022-11-22T00:35:24.540Z,4.00
2022-11-22T00:37:52.351Z,3.90
2022-11-22T00:40:21.553Z,3.90
2022-11-22T00:42:49.377Z,4.00
2022-11-22T00:45:17.238Z,3.90
2022-11-22T00:47:45.109Z,4.00
2022-11-22T00:50:12.959Z,4.10
2022-11-22T00:52:40.797Z,3.90
2022-11-22T00:55:09.288Z,3.90
2022-11-22T00:57:38.477Z,4.10
2022-11-22T01:00:08.046Z,4.10
2022-11-22T01:02:35.876Z,4.10
2022-11-22T01:05:03.884Z,4.10
2022-11-22T01:07:31.856Z,4.00
2022-11-22T01:09:59.764Z,3.90
2022-11-22T01:12:27.584Z,3.90
2022-11-22T01:14:56.736Z,3.90
2022-11-22T01:17:24.561Z,4.00
2022-11-22T01:19:52.341Z,4.00
2022-11-22T01:22:20.187Z,4.00
2022-11-22T01:24:48.007Z,4.00
2022-11-22T01:27:15.923Z,4.10
2022-11-22T01:29:43.710Z,4.10
2022-11-22T01:32:12.864Z,4.10
2022-11-22T01:34:40.696Z,3.90
2022-11-22T01:37:08.581Z,3.90
2022-11-22T01:39:36.444Z,3.90
2022-11-22T01:42:04.335Z,3.90
2022-11-22T01:44:34.022Z,4.00
2022-11-22T01:47:04.822Z,4.00
2022-11-22T01:49:38.254Z,4.00
2022-11-22T01:52:09.169Z,4.00
2022-11-22T01:54:40.695Z,4.00
2022-11-22T01:57:12.781Z,4.00
2022-11-22T01:59:45.337Z,3.90
2022-11-22T02:02:14.299Z,3.80
2022-11-22T02:04:44.723Z,4.10
2022-11-22T02:07:18.277Z,4.10
2022-11-22T02:09:48.070Z,4.20
2022-11-22T02:12:18.252Z,4.20
2022-11-22T02:14:46.375Z,4.30
2022-11-22T02:17:14.542Z,4.10
2022-11-22T02:19:45.315Z,4.10
2022-11-22T02:22:31.188Z,4.10
2022-11-22T02:25:03.078Z,4.20
2022-11-22T02:27:32.554Z,4.20
2022-11-22T02:30:00.424Z,4.40
2022-11-22T02:32:28.230Z,4.40
2022-11-22T02:34:56.078Z,4.20
2022-11-22T02:37:26.908Z,4.30
2022-11-22T02:39:59.647Z,4.30
2022-11-22T02:42:29.763Z,4.30
2022-11-22T02:44:58.925Z,4.40
2022-11-22T02:47:26.735Z,4.30
2022-11-22T02:49:54.711Z,4.40
2022-11-22T02:52:22.511Z,4.20
2022-11-22T02:54:50.356Z,4.40
2022-11-22T02:57:18.186Z,4.30
2022-11-22T02:59:45.988Z,4.30
2022-11-22T03:02:15.164Z,4.20
2022-11-22T03:04:42.944Z,4.20
2022-11-22T03:07:10.802Z,4.20
2022-11-22T03:09:38.656Z,4.20
2022-11-22T03:12:06.853Z,4.10
2022-11-22T03:14:34.951Z,4.20
2022-11-22T03:17:02.777Z,4.30
2022-11-22T03:19:32.719Z,4.10
2022-11-22T03:22:00.783Z,3.90
2022-11-22T03:24:28.572Z,3.90
2022-11-22T03:26:56.378Z,4.00
2022-11-22T03:29:24.170Z,4.10
2022-11-22T03:31:52.251Z,4.20
2022-11-22T03:34:20.178Z,4.20
2022-11-22T03:36:49.380Z,4.20
2022-11-22T03:39:17.195Z,4.20
2022-11-22T03:41:45.041Z,4.10
2022-11-22T03:44:12.833Z,4.00
2022-11-22T03:46:40.758Z,4.20
2022-11-22T03:49:08.597Z,4.20
2022-11-22T03:51:36.407Z,4.30
2022-11-22T03:54:05.795Z,4.50
2022-11-22T03:56:33.728Z,4.50
2022-11-22T03:59:01.755Z,4.50
2022-11-22T04:01:29.708Z,4.40
2022-11-22T04:03:57.558Z,4.40
2022-11-22T04:06:25.374Z,4.50
2022-11-22T04:08:53.221Z,4.50
2022-11-22T04:11:22.426Z,4.40
2022-11-22T04:14:08.017Z,4.50
2022-11-22T04:16:35.839Z,4.30
2022-11-22T04:19:03.706Z,4.40
2022-11-22T04:21:36.549Z,4.40
2022-11-22T04:24:23.200Z,4.60
2022-11-22T04:26:53.102Z,4.30
2022-11-22T04:29:21.812Z,4.40
2022-11-22T04:32:08.672Z,4.40
2022-11-22T04:34:37.180Z,4.40
2022-11-22T04:37:06.102Z,4.50
2022-11-22T04:39:34.291Z,4.50
2022-11-22T04:42:20.842Z,4.70
2022-11-22T04:44:48.753Z,4.60
2022-11-22T04:47:39.697Z,4.70
2022-11-22T04:50:29.882Z,4.90
2022-11-22T04:52:57.881Z,4.80
2022-11-22T04:55:25.941Z,4.80
2022-11-22T04:57:59.567Z,4.70
2022-11-22T05:00:28.700Z,4.80
2022-11-22T05:02:56.678Z,4.70
2022-11-22T05:05:25.968Z,4.60
2022-11-22T05:07:53.988Z,4.60
2022-11-22T05:10:26.475Z,4.60
2022-11-22T05:12:57.107Z,4.70
2022-11-22T05:15:24.968Z,4.70
2022-11-22T05:17:52.819Z,4.90
2022-11-22T05:20:20.625Z,4.80
2022-11-22T05:23:05.872Z,4.70
2022-11-22T05:25:33.667Z,4.70
2022-11-22T05:28:02.833Z,4.80
2022-11-22T05:30:30.617Z,4.60
2022-11-22T05:32:58.400Z,4.70
2022-11-22T05:35:26.219Z,4.70
2022-11-22T05:37:54.059Z,4.60
2022-11-22T05:40:21.829Z,4.60
2022-11-22T05:42:49.645Z,4.60
2022-11-22T05:45:18.816Z,4.60
2022-11-22T05:47:46.740Z,4.60
2022-11-22T05:50:14.798Z,4.40
2022-11-22T05:52:42.602Z,4.40
2022-11-22T05:55:10.684Z,4.30
2022-11-22T05:57:39.560Z,4.30
2022-11-22T06:00:08.515Z,4.30
2022-11-22T06:02:37.752Z,4.40
2022-11-22T06:05:06.030Z,4.50
2022-11-22T06:07:33.925Z,4.50
2022-11-22T06:10:01.818Z,4.50
2022-11-22T06:12:29.600Z,4.60
2022-11-22T06:14:57.465Z,4.70
2022-11-22T06:17:25.278Z,4.70
2022-11-22T06:19:54.538Z,4.70
2022-11-22T06:22:22.452Z,4.70
2022-11-22T06:24:50.315Z,4.80
2022-11-22T06:27:18.154Z,4.90
2022-11-22T06:29:46.123Z,4.80
2022-11-22T06:32:14.391Z,4.90
2022-11-22T06:34:42.214Z,5.00
2022-11-22T06:37:17.533Z,4.90
2022-11-22T06:39:45.326Z,5.00
2022-11-22T06:42:13.171Z,5.00
2022-11-22T06:44:40.955Z,5.00
2022-11-22T06:47:10.205Z,5.10
2022-11-22T06:49:38.058Z,5.20
2022-11-22T06:52:06.192Z,5.10
2022-11-22T06:54:35.368Z,5.00
2022-11-22T06:57:03.251Z,4.90
2022-11-22T06:59:31.391Z,5.00
2022-11-22T07:02:05.826Z,4.80
2022-11-22T07:04:34.366Z,4.90
2022-11-22T07:07:02.207Z,4.80
2022-11-22T07:09:30.247Z,4.60
2022-11-22T07:11:59.550Z,4.70
2022-11-22T07:14:27.379Z,5.00
2022-11-22T07:16:55.286Z,5.10
2022-11-22T07:19:23.132Z,5.20
2022-11-22T07:21:50.945Z,5.10
2022-11-22T07:24:18.864Z,4.90
2022-11-22T07:26:46.625Z,5.10
2022-11-22T07:29:15.852Z,5.10
2022-11-22T07:31:46.220Z,5.00
2022-11-22T07:34:14.264Z,5.10
2022-11-22T07:36:42.082Z,5.00
2022-11-22T07:39:09.923Z,5.00
2022-11-22T07:41:37.724Z,5.10
2022-11-22T07:44:05.816Z,5.30
2022-11-22T07:46:35.186Z,5.10
2022-11-22T07:49:03.585Z,4.90
2022-11-22T07:51:31.678Z,4.80
2022-11-22T07:53:59.509Z,4.60
2022-11-22T07:56:27.330Z,4.90
2022-11-22T07:58:56.190Z,5.00
2022-11-22T08:01:24.159Z,5.10
2022-11-22T08:03:53.417Z,5.10
2022-11-22T08:06:21.232Z,4.90
2022-11-22T08:08:49.055Z,5.10
2022-11-22T08:11:16.853Z,5.20
2022-11-22T08:13:44.948Z,5.30
2022-11-22T08:16:14.887Z,5.40
2022-11-22T08:18:46.539Z,5.20
2022-11-22T08:21:16.631Z,5.10
2022-11-22T08:23:45.448Z,5.20
2022-11-22T08:26:16.317Z,5.40
2022-11-22T08:28:45.895Z,5.30
2022-11-22T08:31:15.794Z,5.40
2022-11-22T08:33:43.872Z,5.40
2022-11-22T08:36:11.951Z,5.40
2022-11-22T08:38:41.104Z,5.40
2022-11-22T08:41:08.960Z,5.30
2022-11-22T08:43:36.959Z,5.30
2022-11-22T08:46:05.325Z,5.40
2022-11-22T08:48:34.971Z,5.60
2022-11-22T08:51:04.831Z,5.60
2022-11-22T08:53:34.344Z,5.70
2022-11-22T08:56:05.328Z,5.50
2022-11-22T08:58:34.328Z,5.50
2022-11-22T09:01:05.947Z,5.60
2022-11-22T09:03:34.665Z,5.80
2022-11-22T09:09:02.734Z,5.90
2022-11-22T09:11:38.252Z,6.00
2022-11-22T09:14:06.073Z,6.00
2022-11-22T09:16:33.962Z,6.00
2022-11-22T09:19:01.788Z,5.80
2022-11-22T09:21:29.601Z,5.60
2022-11-22T09:23:57.597Z,5.40
2022-11-22T09:26:25.879Z,5.40
2022-11-22T09:28:55.036Z,5.70
2022-11-22T09:31:24.062Z,5.90
2022-11-22T09:33:52.037Z,5.90
2022-11-22T09:36:21.851Z,6.00
2022-11-22T09:38:50.331Z,6.30
2022-11-22T09:41:40.678Z,6.30
2022-11-22T09:44:19.618Z,6.30
2022-11-22T09:46:53.829Z,6.30
2022-11-22T09:49:30.528Z,6.20
2022-11-22T09:52:05.410Z,6.50
2022-11-22T09:54:40.275Z,6.50
2022-11-22T09:57:15.508Z,6.50
2022-11-22T09:59:48.013Z,6.60
2022-11-22T10:02:20.712Z,6.60
2022-11-22T10:04:54.730Z,6.50
2022-11-22T10:07:28.963Z,6.20
2022-11-22T10:10:03.899Z,6.20
2022-11-22T10:12:39.713Z,6.30
2022-11-22T10:15:20.224Z,6.30
2022-11-22T10:17:54.741Z,6.30
2022-11-22T10:20:24.757Z,6.30
2022-11-22T10:22:52.721Z,6.40
2022-11-22T10:25:22.506Z,6.40
2022-11-22T10:28:00.638Z,6.50
2022-11-22T10:30:35.961Z,6.50
2022-11-22T10:33:11.184Z,6.60
2022-11-22T10:35:50.509Z,6.70
2022-11-22T10:38:49.311Z,6.70
2022-11-22T10:41:36.525Z,6.80
2022-11-22T10:44:13.728Z,6.70
2022-11-22T10:46:56.871Z,6.70
2022-11-22T10:49:36.159Z,6.60
2022-11-22T10:52:12.311Z,6.70
2022-11-22T10:54:48.106Z,6.60
2022-11-22T10:57:21.807Z,6.50
2022-11-22T11:00:02.267Z,6.50
2022-11-22T11:02:56.229Z,6.60
2022-11-22T11:05:31.511Z,6.80
2022-11-22T11:08:22.111Z,6.80
2022-11-22T11:10:48.779Z,6.80
2022-11-22T11:13:22.542Z,6.80
2022-11-22T11:15:56.390Z,7.00
2022-11-22T11:18:31.418Z,7.20
2022-11-22T11:20:59.500Z,7.40
2022-11-22T11:23:27.428Z,7.60
2022-11-22T11:25:55.395Z,7.60
2022-11-22T11:28:24.828Z,7.40
2022-11-22T11:30:55.527Z,7.40
2022-11-22T11:33:29.223Z,7.40
2022-11-22T11:36:02.361Z,7.50
2022-11-22T11:38:36.701Z,7.40
2022-11-22T11:41:29.081Z,7.30
2022-11-22T11:43:58.664Z,7.20
2022-11-22T11:46:28.096Z,7.20
2022-11-22T11:49:09.737Z,7.30
2022-11-22T11:51:40.259Z,7.60
2022-11-22T11:54:12.914Z,7.60
2022-11-22T11:56:52.488Z,7.70
2022-11-22T11:59:22.057Z,7.80
2022-11-22T12:01:58.042Z,7.80
2022-11-22T12:04:30.409Z,7.80
2022-11-22T12:07:03.786Z,7.60
2022-11-22T12:09:35.625Z,7.60
2022-11-22T12:12:18.716Z,7.60
2022-11-22T12:15:10.150Z,7.60
2022-11-22T12:17:50.405Z,7.60
2022-11-22T12:20:23.548Z,7.70
2022-11-22T12:23:06.741Z,7.70
2022-11-22T12:25:37.904Z,7.80
2022-11-22T12:28:17.700Z,8.00
2022-11-22T12:30:47.644Z,8.10
2022-11-22T12:33:21.682Z,8.30
2022-11-22T12:35:54.311Z,8.40
2022-11-22T12:38:28.754Z,8.60
2022-11-22T12:41:01.232Z,8.80
2022-11-22T12:43:34.559Z,8.80
2022-11-22T12:46:10.609Z,8.80
2022-11-22T12:48:48.701Z,8.90
2022-11-22T12:51:25.882Z,8.80
2022-11-22T12:53:56.599Z,8.80
2022-11-22T12:56:33.297Z,8.90
2022-11-22T12:59:07.569Z,8.80
2022-11-22T13:01:44.624Z,8.90
2022-11-22T13:04:19.986Z,8.90
2022-11-22T13:06:58.704Z,8.80
2022-11-22T13:09:33.296Z,8.80
2022-11-22T13:12:05.356Z,8.80
2022-11-22T13:14:36.971Z,9.00
2022-11-22T13:17:08.338Z,8.80
2022-11-22T13:19:46.456Z,8.60
2022-11-22T13:22:20.476Z,8.70
2022-11-22T13:25:02.183Z,8.80
2022-11-22T13:27:32.595Z,9.00
2022-11-22T13:30:02.621Z,9.00
2022-11-22T13:32:32.601Z,8.80
2022-11-22T13:35:04.736Z,8.90
2022-11-22T13:37:39.181Z,8.80
2022-11-22T13:40:21.916Z,8.90
2022-11-22T13:43:14.640Z,8.80
2022-11-22T13:45:48.906Z,8.90
2022-11-22T13:48:58.090Z,8.90
2022-11-22T13:51:51.021Z,8.80
2022-11-22T13:55:01.648Z,8.90
2022-11-22T13:57:33.859Z,8.90
2022-11-22T14:00:47.795Z,8.80
2022-11-22T14:03:24.659Z,8.70
2022-11-22T14:05:54.744Z,8.90
2022-11-22T14:08:33.333Z,8.90
2022-11-22T14:11:17.177Z,9.10
2022-11-22T14:13:54.099Z,8.90
2022-11-22T14:16:38.424Z,9.20
2022-11-22T14:19:21.263Z,9.30
2022-11-22T14:22:01.740Z,9.00
2022-11-22T14:24:42.605Z,9.00
2022-11-22T14:27:26.837Z,9.00
2022-11-22T14:30:13.755Z,8.90
2022-11-22T14:32:55.325Z,9.00
2022-11-22T14:35:29.611Z,8.80
2022-11-22T14:38:04.571Z,8.80
2022-11-22T14:40:37.925Z,8.70
2022-11-22T14:43:26.332Z,8.70
2022-11-22T14:45:56.432Z,8.60
2022-11-22T14:48:29.517Z,8.60
2022-11-22T14:51:06.033Z,8.10
2022-11-22T14:53:43.687Z,8.10
2022-11-22T14:56:17.441Z,7.90
2022-11-22T14:58:57.650Z,7.80
2022-11-22T15:02:04.411Z,7.60
2022-11-22T15:09:19.633Z,7.50
2022-11-22T15:09:21.462Z,7.50
2022-11-22T15:11:05.022Z,7.40
2022-11-22T15:13:47.278Z,7.70
2022-11-22T15:57:29.922Z,6.90
2022-11-22T15:59:59.074Z,6.90
2022-11-22T16:02:30.268Z,7.10
2022-11-22T16:06:08.215Z,7.00
2022-11-22T16:07:52.436Z,7.10
2022-11-22T16:10:24.007Z,6.90
2022-11-22T16:12:52.769Z,6.90
2022-11-22T16:15:27.742Z,6.90
2022-11-22T16:18:06.676Z,7.00
2022-11-22T16:20:36.502Z,6.90
2022-11-22T16:23:17.226Z,6.70
2022-11-22T16:25:47.109Z,6.90
2022-11-22T16:28:36.798Z,6.60
2022-11-22T16:31:08.363Z,6.60
2022-11-22T16:33:36.258Z,6.50
2022-11-22T16:36:10.501Z,6.50
2022-11-22T16:38:39.642Z,6.70
2022-11-22T16:41:13.487Z,6.40
2022-11-22T16:43:41.535Z,6.40
2022-11-22T16:46:13.351Z,6.30
2022-11-22T16:48:41.317Z,6.40
2022-11-22T16:51:14.456Z,6.30
2022-11-22T16:53:45.567Z,6.20
2022-11-22T16:56:19.367Z,6.20
2022-11-22T16:58:47.904Z,6.30
2022-11-22T17:01:17.581Z,6.10
2022-11-22T17:03:47.290Z,6.30
2022-11-22T17:06:18.419Z,6.30
2022-11-22T17:08:48.898Z,6.30
2022-11-22T17:11:18.735Z,6.20
2022-11-22T17:13:47.144Z,6.00
2022-11-22T17:16:17.587Z,6.20
2022-11-22T17:18:45.792Z,6.10
2022-11-22T17:21:18.849Z,6.00
2022-11-22T17:23:49.434Z,5.90
2022-11-22T17:26:17.278Z,5.90
2022-11-22T17:28:45.191Z,6.00
2022-11-22T17:31:14.979Z,6.00
2022-11-22T17:33:42.875Z,5.90
2022-11-22T17:36:20.441Z,5.90
2022-11-22T17:38:49.585Z,5.70
2022-11-22T17:41:17.417Z,5.80
2022-11-22T17:43:45.727Z,5.90
2022-11-22T17:46:13.651Z,6.00
2022-11-22T17:48:41.574Z,6.00
2022-11-22T17:51:10.063Z,6.00
2022-11-22T17:53:37.996Z,5.60
2022-11-22T17:56:11.617Z,5.80
2022-11-22T17:58:40.076Z,6.10
2022-11-22T18:01:10.268Z,6.30
2022-11-22T18:03:38.977Z,6.40
2022-11-22T18:06:07.530Z,6.40
2022-11-22T18:08:35.973Z,6.50
2022-11-22T18:11:04.497Z,6.50
2022-11-22T18:13:35.577Z,6.60
2022-11-22T18:16:05.370Z,6.50
2022-11-22T18:18:55.703Z,6.60
2022-11-22T18:21:21.613Z,6.80
2022-11-22T18:23:49.421Z,6.70
2022-11-22T18:26:38.403Z,6.80
2022-11-22T18:31:54.669Z,6.50
2022-11-22T18:34:22.714Z,6.30
2022-11-22T18:37:06.247Z,6.20
2022-11-22T18:39:37.151Z,6.30
2022-11-22T18:42:07.066Z,6.40
2022-11-22T18:44:36.214Z,6.20
2022-11-22T18:47:04.052Z,6.00
2022-11-22T18:49:32.380Z,6.00
2022-11-22T18:52:00.883Z,6.30
2022-11-22T18:54:29.080Z,6.40
2022-11-22T18:56:57.231Z,6.50
2022-11-22T18:59:25.115Z,6.60
2022-11-22T19:01:54.308Z,6.50
2022-11-22T19:04:22.148Z,6.60
2022-11-22T19:06:50.016Z,6.30
2022-11-22T19:09:17.860Z,6.30
2022-11-22T19:11:45.822Z,6.30
2022-11-22T19:14:13.689Z,6.50
2022-11-22T19:16:42.021Z,6.60
2022-11-22T19:19:12.996Z,6.70
2022-11-22T19:21:40.833Z,6.50
2022-11-22T19:24:08.872Z,6.40
2022-11-22T19:26:36.676Z,6.50
2022-11-22T19:29:04.962Z,6.40
2022-11-22T19:31:33.644Z,6.40
2022-11-22T19:34:01.684Z,6.50
2022-11-22T19:36:33.728Z,6.50
2022-11-22T19:39:03.405Z,6.20
2022-11-22T19:41:31.736Z,6.20
2022-11-22T19:43:59.632Z,6.20
2022-11-22T19:46:27.828Z,6.10
2022-11-22T19:48:57.219Z,6.10
2022-11-22T19:51:26.444Z,6.10
2022-11-22T19:53:58.625Z,6.20
2022-11-22T19:56:30.047Z,6.30
2022-11-22T19:58:59.560Z,6.30
2022-11-22T20:01:29.019Z,6.30
2022-11-22T20:03:58.629Z,6.20
2022-11-22T20:06:27.167Z,6.20
2022-11-22T20:09:01.120Z,6.20
2022-11-22T20:11:28.927Z,6.40
2022-11-22T20:13:56.840Z,6.50
2022-11-22T20:16:26.859Z,6.50
2022-11-22T20:18:54.985Z,6.60
2022-11-22T20:21:24.494Z,6.70
2022-11-22T20:23:53.075Z,6.70
2022-11-22T20:26:23.683Z,6.70
2022-11-22T20:28:56.207Z,6.60
2022-11-22T20:31:24.808Z,6.60
2022-11-22T20:33:54.248Z,6.50
2022-11-22T20:36:24.426Z,6.50
2022-11-22T20:38:53.074Z,6.50
2022-11-22T20:41:23.527Z,6.30
2022-11-22T20:43:51.883Z,6.40
2022-11-22T20:46:21.365Z,6.70
2022-11-22T20:48:50.111Z,6.70
2022-11-22T20:51:19.785Z,7.00
2022-11-22T20:53:47.858Z,7.20
2022-11-22T20:56:16.506Z,7.40
2022-11-22T20:58:46.121Z,7.60
2022-11-22T21:01:16.383Z,7.90
2022-11-22T21:03:44.607Z,8.10
2022-11-22T21:06:13.592Z,8.00
2022-11-22T21:08:41.807Z,8.10
2022-11-22T21:11:12.841Z,8.20
2022-11-22T21:13:41.518Z,8.20
2022-11-22T21:16:22.838Z,8.00
2022-11-22T21:18:52.685Z,7.70
2022-11-22T21:21:22.853Z,7.80
2022-11-22T21:23:51.865Z,7.90
2022-11-22T21:26:19.794Z,7.80
2022-11-22T21:28:47.709Z,7.70
2022-11-22T21:31:17.655Z,7.70
2022-11-22T21:33:46.179Z,7.80
2022-11-22T21:36:14.445Z,8.00
2022-11-22T21:38:42.316Z,8.20
2022-11-22T21:44:02.485Z,7.90
2022-11-22T21:46:31.736Z,7.70
2022-11-22T21:48:59.559Z,7.60
2022-11-22T21:51:28.187Z,7.60
2022-11-22T21:53:59.650Z,7.60
2022-11-22T21:56:28.112Z,7.40
2022-11-22T21:58:56.066Z,7.20
2022-11-22T22:01:24.798Z,7.00
2022-11-22T22:03:54.526Z,6.90
2022-11-22T22:06:22.438Z,7.00
2022-11-22T22:08:50.431Z,6.90
2022-11-22T22:11:18.681Z,6.70
2022-11-22T22:13:46.580Z,6.60
2022-11-22T22:16:19.384Z,6.70
2022-11-22T22:18:47.567Z,6.90
2022-11-22T22:21:18.935Z,6.80
2022-11-22T22:23:47.612Z,7.00
2022-11-22T22:26:17.828Z,7.10
2022-11-22T22:28:46.330Z,6.80
2022-11-22T22:31:16.781Z,6.80
2022-11-22T22:33:46.410Z,7.10
2022-11-22T22:36:16.146Z,7.30
2022-11-22T22:38:44.088Z,7.40
2022-11-22T22:41:13.991Z,7.40
2022-11-22T22:43:43.711Z,7.30
2022-11-22T22:46:13.869Z,7.30
2022-11-22T22:48:41.877Z,7.30
2022-11-22T22:51:14.009Z,7.40
2022-11-22T22:53:44.020Z,7.40
2022-11-22T22:56:12.968Z,7.40
2022-11-22T22:58:41.171Z,7.60
2022-11-22T23:01:10.502Z,7.70
2022-11-22T23:03:38.861Z,7.60
2022-11-22T23:06:08.840Z,7.80
2022-11-22T23:08:36.878Z,7.70
2022-11-22T23:11:08.111Z,7.50
2022-11-22T23:13:37.258Z,7.40
2022-11-22T23:16:06.220Z,7.30
2022-11-22T23:18:36.659Z,7.30
2022-11-22T23:21:06.374Z,7.30
2022-11-22T23:23:35.112Z,7.30
2022-11-22T23:26:03.777Z,7.30
2022-11-22T23:28:33.549Z,7.10
2022-11-22T23:31:08.700Z,7.00
2022-11-22T23:33:36.748Z,6.90
2022-11-22T23:36:05.508Z,7.00
2022-11-22T23:38:34.108Z,7.10
2022-11-22T23:41:02.457Z,7.20
2022-11-22T23:43:32.172Z,7.10
2022-11-22T23:46:00.135Z,7.00
2022-11-22T23:48:28.536Z,7.00
2022-11-22T23:50:56.425Z,6.90
2022-11-22T23:53:25.153Z,6.80
2022-11-22T23:55:52.951Z,6.60
2022-11-22T23:58:20.808Z,6.50
